sensor_id;sensor_type;location;lat;lon;timestamp;temperature;humidity
16134;DHT22;8172;45.018;5.972;2022-10-26T00:00:09;14.90;59.50
16134;DHT22;8172;45.018;5.972;2022-10-26T00:05:17;14.90;59.60
16134;DHT22;8172;45.018;5.972;2022-10-26T00:10:25;14.90;59.40
16134;DHT22;8172;45.018;5.972;2022-10-26T00:15:34;14.90;59.40
16134;DHT22;8172;45.018;5.972;2022-10-26T00:20:43;14.90;59.40
16134;DHT22;8172;45.018;5.972;2022-10-26T00:25:54;14.90;59.30
16134;DHT22;8172;45.018;5.972;2022-10-26T00:31:02;14.90;59.20
16134;DHT22;8172;45.018;5.972;2022-10-26T00:36:10;14.90;59.20
16134;DHT22;8172;45.018;5.972;2022-10-26T00:41:23;15.00;59.10
16134;DHT22;8172;45.018;5.972;2022-10-26T00:46:33;15.00;59.00
16134;DHT22;8172;45.018;5.972;2022-10-26T00:51:45;15.00;59.00
16134;DHT22;8172;45.018;5.972;2022-10-26T00:56:53;15.00;59.00
16134;DHT22;8172;45.018;5.972;2022-10-26T01:02:01;15.00;58.80
16134;DHT22;8172;45.018;5.972;2022-10-26T01:07:09;15.00;59.00
16134;DHT22;8172;45.018;5.972;2022-10-26T01:12:17;15.00;59.00
16134;DHT22;8172;45.018;5.972;2022-10-26T01:17:30;15.00;59.00
16134;DHT22;8172;45.018;5.972;2022-10-26T01:27:45;15.00;58.90
16134;DHT22;8172;45.018;5.972;2022-10-26T01:38:08;15.00;59.10
16134;DHT22;8172;45.018;5.972;2022-10-26T01:43:15;15.00;58.90
16134;DHT22;8172;45.018;5.972;2022-10-26T01:48:24;15.00;58.70
16134;DHT22;8172;45.018;5.972;2022-10-26T01:53:32;15.00;58.60
16134;DHT22;8172;45.018;5.972;2022-10-26T02:09:02;15.00;58.60
16134;DHT22;8172;45.018;5.972;2022-10-26T02:19:23;15.00;58.50
16134;DHT22;8172;45.018;5.972;2022-10-26T02:24:29;15.10;58.20
16134;DHT22;8172;45.018;5.972;2022-10-26T02:29:40;15.10;58.20
16134;DHT22;8172;45.018;5.972;2022-10-26T02:34:49;15.10;58.20
16134;DHT22;8172;45.018;5.972;2022-10-26T02:39:59;15.10;58.10
16134;DHT22;8172;45.018;5.972;2022-10-26T02:45:10;15.10;58.20
16134;DHT22;8172;45.018;5.972;2022-10-26T02:50:20;15.20;58.00
16134;DHT22;8172;45.018;5.972;2022-10-26T02:55:31;15.20;58.00
16134;DHT22;8172;45.018;5.972;2022-10-26T03:00:39;15.10;57.90
16134;DHT22;8172;45.018;5.972;2022-10-26T03:05:47;15.20;57.70
16134;DHT22;8172;45.018;5.972;2022-10-26T03:10:55;15.20;57.90
16134;DHT22;8172;45.018;5.972;2022-10-26T03:16:03;15.20;57.80
16134;DHT22;8172;45.018;5.972;2022-10-26T03:21:11;15.20;57.60
16134;DHT22;8172;45.018;5.972;2022-10-26T03:26:18;15.20;57.60
16134;DHT22;8172;45.018;5.972;2022-10-26T03:31:26;15.20;57.90
16134;DHT22;8172;45.018;5.972;2022-10-26T03:36:33;15.10;58.00
16134;DHT22;8172;45.018;5.972;2022-10-26T03:41:40;15.10;58.20
16134;DHT22;8172;45.018;5.972;2022-10-26T03:46:48;15.10;58.20
16134;DHT22;8172;45.018;5.972;2022-10-26T03:51:56;15.10;58.20
16134;DHT22;8172;45.018;5.972;2022-10-26T03:57:03;15.10;57.80
16134;DHT22;8172;45.018;5.972;2022-10-26T04:02:11;15.00;57.50
16134;DHT22;8172;45.018;5.972;2022-10-26T04:07:20;15.00;57.50
16134;DHT22;8172;45.018;5.972;2022-10-26T04:12:27;15.00;57.50
16134;DHT22;8172;45.018;5.972;2022-10-26T04:17:34;15.00;57.40
16134;DHT22;8172;45.018;5.972;2022-10-26T04:22:42;14.90;57.20
16134;DHT22;8172;45.018;5.972;2022-10-26T04:27:49;14.90;56.80
16134;DHT22;8172;45.018;5.972;2022-10-26T04:32:57;14.90;57.10
16134;DHT22;8172;45.018;5.972;2022-10-26T04:38:06;14.90;57.20
16134;DHT22;8172;45.018;5.972;2022-10-26T04:43:13;14.90;57.20
16134;DHT22;8172;45.018;5.972;2022-10-26T04:48:21;14.80;57.20
16134;DHT22;8172;45.018;5.972;2022-10-26T04:53:30;14.80;57.30
16134;DHT22;8172;45.018;5.972;2022-10-26T04:58:39;14.70;57.40
16134;DHT22;8172;45.018;5.972;2022-10-26T05:03:48;14.70;57.50
16134;DHT22;8172;45.018;5.972;2022-10-26T05:08:55;14.60;57.60
16134;DHT22;8172;45.018;5.972;2022-10-26T05:14:03;14.60;57.90
16134;DHT22;8172;45.018;5.972;2022-10-26T05:19:10;14.50;57.80
16134;DHT22;8172;45.018;5.972;2022-10-26T05:24:18;14.40;57.70
16134;DHT22;8172;45.018;5.972;2022-10-26T05:29:25;14.40;57.90
16134;DHT22;8172;45.018;5.972;2022-10-26T05:34:33;14.30;58.10
16134;DHT22;8172;45.018;5.972;2022-10-26T05:39:42;14.30;58.20
16134;DHT22;8172;45.018;5.972;2022-10-26T05:44:49;14.20;58.20
16134;DHT22;8172;45.018;5.972;2022-10-26T05:49:56;14.20;58.20
16134;DHT22;8172;45.018;5.972;2022-10-26T05:55:05;14.20;58.20
16134;DHT22;8172;45.018;5.972;2022-10-26T06:00:18;14.20;58.20
16134;DHT22;8172;45.018;5.972;2022-10-26T06:05:26;14.10;58.30
16134;DHT22;8172;45.018;5.972;2022-10-26T06:10:33;14.10;58.50
16134;DHT22;8172;45.018;5.972;2022-10-26T06:15:50;14.00;58.80
16134;DHT22;8172;45.018;5.972;2022-10-26T06:31:12;13.90;59.20
16134;DHT22;8172;45.018;5.972;2022-10-26T06:36:20;13.80;59.30
16134;DHT22;8172;45.018;5.972;2022-10-26T06:41:31;13.80;59.10
16134;DHT22;8172;45.018;5.972;2022-10-26T06:56:58;13.70;59.60
16134;DHT22;8172;45.018;5.972;2022-10-26T07:02:09;13.60;59.90
16134;DHT22;8172;45.018;5.972;2022-10-26T07:07:19;13.60;60.00
16134;DHT22;8172;45.018;5.972;2022-10-26T07:12:27;13.60;59.90
16134;DHT22;8172;45.018;5.972;2022-10-26T07:22:52;13.60;60.40
16134;DHT22;8172;45.018;5.972;2022-10-26T07:27:59;13.60;60.30
16134;DHT22;8172;45.018;5.972;2022-10-26T07:33:09;13.60;60.40
16134;DHT22;8172;45.018;5.972;2022-10-26T07:38:17;13.70;60.40
16134;DHT22;8172;45.018;5.972;2022-10-26T07:43:26;13.70;60.30
16134;DHT22;8172;45.018;5.972;2022-10-26T07:48:34;13.70;60.40
16134;DHT22;8172;45.018;5.972;2022-10-26T07:53:41;13.70;60.40
16134;DHT22;8172;45.018;5.972;2022-10-26T07:58:53;13.80;60.20
16134;DHT22;8172;45.018;5.972;2022-10-26T08:03:59;13.80;60.20
16134;DHT22;8172;45.018;5.972;2022-10-26T08:09:06;13.80;60.20
16134;DHT22;8172;45.018;5.972;2022-10-26T08:14:14;13.90;60.30
16134;DHT22;8172;45.018;5.972;2022-10-26T08:19:21;13.90;60.50
16134;DHT22;8172;45.018;5.972;2022-10-26T08:24:29;14.00;60.60
16134;DHT22;8172;45.018;5.972;2022-10-26T08:29:36;14.00;60.70
16134;DHT22;8172;45.018;5.972;2022-10-26T08:34:43;14.10;60.70
16134;DHT22;8172;45.018;5.972;2022-10-26T08:39:50;14.20;60.70
16134;DHT22;8172;45.018;5.972;2022-10-26T08:45:02;14.30;60.50
16134;DHT22;8172;45.018;5.972;2022-10-26T08:55:20;14.70;60.70
16134;DHT22;8172;45.018;5.972;2022-10-26T09:00:30;14.80;60.40
16134;DHT22;8172;45.018;5.972;2022-10-26T09:05:42;14.90;60.40
16134;DHT22;8172;45.018;5.972;2022-10-26T09:10:54;15.10;60.50
16134;DHT22;8172;45.018;5.972;2022-10-26T09:16:06;15.20;60.40
16134;DHT22;8172;45.018;5.972;2022-10-26T09:31:29;15.50;59.60
16134;DHT22;8172;45.018;5.972;2022-10-26T09:36:38;15.70;59.60
16134;DHT22;8172;45.018;5.972;2022-10-26T09:41:52;15.80;59.70
16134;DHT22;8172;45.018;5.972;2022-10-26T09:47:01;15.90;59.80
16134;DHT22;8172;45.018;5.972;2022-10-26T09:52:07;16.00;59.40
16134;DHT22;8172;45.018;5.972;2022-10-26T09:57:18;16.10;59.70
16134;DHT22;8172;45.018;5.972;2022-10-26T10:07:37;16.30;59.20
16134;DHT22;8172;45.018;5.972;2022-10-26T10:12:46;16.40;59.00
16134;DHT22;8172;45.018;5.972;2022-10-26T10:17:58;16.50;58.70
16134;DHT22;8172;45.018;5.972;2022-10-26T10:23:09;16.60;58.80
16134;DHT22;8172;45.018;5.972;2022-10-26T10:28:18;16.70;58.90
16134;DHT22;8172;45.018;5.972;2022-10-26T10:33:34;16.80;58.60
16134;DHT22;8172;45.018;5.972;2022-10-26T10:38:37;16.90;58.50
16134;DHT22;8172;45.018;5.972;2022-10-26T10:43:48;16.90;57.80
16134;DHT22;8172;45.018;5.972;2022-10-26T10:49:01;17.00;57.90
16134;DHT22;8172;45.018;5.972;2022-10-26T11:09:40;17.50;58.30
16134;DHT22;8172;45.018;5.972;2022-10-26T11:14:52;17.60;58.30
16134;DHT22;8172;45.018;5.972;2022-10-26T11:20:02;17.80;58.10
16134;DHT22;8172;45.018;5.972;2022-10-26T11:25:11;17.90;57.10
16134;DHT22;8172;45.018;5.972;2022-10-26T11:30:20;18.00;57.10
16134;DHT22;8172;45.018;5.972;2022-10-26T11:46:07;18.20;56.80
16134;DHT22;8172;45.018;5.972;2022-10-26T11:50:59;18.20;57.10
16134;DHT22;8172;45.018;5.972;2022-10-26T11:56:10;18.30;57.10
16134;DHT22;8172;45.018;5.972;2022-10-26T12:01:18;18.30;56.90
16134;DHT22;8172;45.018;5.972;2022-10-26T12:06:29;18.40;56.80
16134;DHT22;8172;45.018;5.972;2022-10-26T12:11:40;18.50;56.50
16134;DHT22;8172;45.018;5.972;2022-10-26T12:21:54;18.70;54.50
16134;DHT22;8172;45.018;5.972;2022-10-26T12:27:03;18.90;53.20
16134;DHT22;8172;45.018;5.972;2022-10-26T12:37:32;19.20;52.90
16134;DHT22;8172;45.018;5.972;2022-10-26T12:42:34;19.30;52.60
16134;DHT22;8172;45.018;5.972;2022-10-26T13:08:20;19.80;50.00
16134;DHT22;8172;45.018;5.972;2022-10-26T13:13:30;19.90;50.10
16134;DHT22;8172;45.018;5.972;2022-10-26T13:18:41;19.90;50.00
16134;DHT22;8172;45.018;5.972;2022-10-26T13:29:00;20.10;50.00
16134;DHT22;8172;45.018;5.972;2022-10-26T13:34:11;20.20;49.60
16134;DHT22;8172;45.018;5.972;2022-10-26T13:44:34;20.30;48.70
16134;DHT22;8172;45.018;5.972;2022-10-26T13:49:40;20.40;48.70
16134;DHT22;8172;45.018;5.972;2022-10-26T13:54:48;20.50;48.30
16134;DHT22;8172;45.018;5.972;2022-10-26T13:59:58;20.50;47.90
16134;DHT22;8172;45.018;5.972;2022-10-26T14:05:11;20.50;47.00
16134;DHT22;8172;45.018;5.972;2022-10-26T14:10:29;20.40;47.50
16134;DHT22;8172;45.018;5.972;2022-10-26T14:15:31;20.40;46.30
16134;DHT22;8172;45.018;5.972;2022-10-26T14:20:40;20.30;46.90
16134;DHT22;8172;45.018;5.972;2022-10-26T14:25:51;20.10;46.70
16134;DHT22;8172;45.018;5.972;2022-10-26T14:36:11;19.60;48.40
16134;DHT22;8172;45.018;5.972;2022-10-26T14:41:19;19.50;49.40
16134;DHT22;8172;45.018;5.972;2022-10-26T14:46:31;19.20;49.70
16134;DHT22;8172;45.018;5.972;2022-10-26T14:51:39;19.10;50.00
16134;DHT22;8172;45.018;5.972;2022-10-26T14:56:47;18.90;50.40
16134;DHT22;8172;45.018;5.972;2022-10-26T15:01:57;18.80;50.50
16134;DHT22;8172;45.018;5.972;2022-10-26T15:17:29;18.40;51.80
16134;DHT22;8172;45.018;5.972;2022-10-26T15:22:38;18.30;52.00
16134;DHT22;8172;45.018;5.972;2022-10-26T15:27:47;18.20;52.50
16134;DHT22;8172;45.018;5.972;2022-10-26T15:32:55;18.10;53.00
16134;DHT22;8172;45.018;5.972;2022-10-26T15:38:02;18.00;53.20
16134;DHT22;8172;45.018;5.972;2022-10-26T15:43:10;17.90;53.50
16134;DHT22;8172;45.018;5.972;2022-10-26T15:48:23;17.80;53.70
16134;DHT22;8172;45.018;5.972;2022-10-26T15:53:29;17.70;53.90
16134;DHT22;8172;45.018;5.972;2022-10-26T15:58:36;17.60;54.10
16134;DHT22;8172;45.018;5.972;2022-10-26T16:03:44;17.50;54.30
16134;DHT22;8172;45.018;5.972;2022-10-26T16:08:54;17.40;54.60
16134;DHT22;8172;45.018;5.972;2022-10-26T16:14:02;17.30;54.80
16134;DHT22;8172;45.018;5.972;2022-10-26T16:19:10;17.30;55.30
16134;DHT22;8172;45.018;5.972;2022-10-26T16:24:19;17.10;55.60
16134;DHT22;8172;45.018;5.972;2022-10-26T16:29:27;17.10;55.60
16134;DHT22;8172;45.018;5.972;2022-10-26T16:34:34;17.00;55.50
16134;DHT22;8172;45.018;5.972;2022-10-26T16:39:42;17.00;55.50
16134;DHT22;8172;45.018;5.972;2022-10-26T16:44:50;17.00;55.60
16134;DHT22;8172;45.018;5.972;2022-10-26T16:49:57;17.00;55.60
16134;DHT22;8172;45.018;5.972;2022-10-26T16:55:06;17.00;55.60
16134;DHT22;8172;45.018;5.972;2022-10-26T17:00:14;17.00;55.70
16134;DHT22;8172;45.018;5.972;2022-10-26T17:05:22;17.00;55.70
16134;DHT22;8172;45.018;5.972;2022-10-26T17:10:29;17.00;55.90
16134;DHT22;8172;45.018;5.972;2022-10-26T17:15:37;17.00;56.30
16134;DHT22;8172;45.018;5.972;2022-10-26T17:20:47;16.90;56.30
16134;DHT22;8172;45.018;5.972;2022-10-26T17:26:00;16.90;56.10
16134;DHT22;8172;45.018;5.972;2022-10-26T17:31:08;16.80;56.10
16134;DHT22;8172;45.018;5.972;2022-10-26T17:36:16;16.80;56.30
16134;DHT22;8172;45.018;5.972;2022-10-26T17:41:26;16.70;56.80
16134;DHT22;8172;45.018;5.972;2022-10-26T17:46:34;16.70;57.00
16134;DHT22;8172;45.018;5.972;2022-10-26T17:51:41;16.60;57.20
16134;DHT22;8172;45.018;5.972;2022-10-26T17:56:48;16.60;57.30
16134;DHT22;8172;45.018;5.972;2022-10-26T18:01:56;16.60;57.50
16134;DHT22;8172;45.018;5.972;2022-10-26T18:07:05;16.60;57.60
16134;DHT22;8172;45.018;5.972;2022-10-26T18:12:13;16.60;57.70
16134;DHT22;8172;45.018;5.972;2022-10-26T18:17:22;16.60;57.80
16134;DHT22;8172;45.018;5.972;2022-10-26T18:22:29;16.60;58.10
16134;DHT22;8172;45.018;5.972;2022-10-26T18:27:37;16.50;57.90
16134;DHT22;8172;45.018;5.972;2022-10-26T18:32:47;16.50;57.90
16134;DHT22;8172;45.018;5.972;2022-10-26T18:37:57;16.50;57.90
16134;DHT22;8172;45.018;5.972;2022-10-26T18:43:04;16.50;57.90
16134;DHT22;8172;45.018;5.972;2022-10-26T18:48:12;16.50;58.00
16134;DHT22;8172;45.018;5.972;2022-10-26T18:53:20;16.50;58.40
16134;DHT22;8172;45.018;5.972;2022-10-26T18:58:30;16.40;58.40
16134;DHT22;8172;45.018;5.972;2022-10-26T19:03:39;16.40;58.40
16134;DHT22;8172;45.018;5.972;2022-10-26T19:08:47;16.40;58.70
16134;DHT22;8172;45.018;5.972;2022-10-26T19:13:55;16.40;58.80
16134;DHT22;8172;45.018;5.972;2022-10-26T19:19:04;16.30;59.00
16134;DHT22;8172;45.018;5.972;2022-10-26T19:24:15;16.20;59.00
16134;DHT22;8172;45.018;5.972;2022-10-26T19:29:25;16.20;58.90
16134;DHT22;8172;45.018;5.972;2022-10-26T19:34:33;16.10;59.00
16134;DHT22;8172;45.018;5.972;2022-10-26T19:39:40;16.10;59.00
16134;DHT22;8172;45.018;5.972;2022-10-26T19:44:48;16.00;59.20
16134;DHT22;8172;45.018;5.972;2022-10-26T19:49:56;15.90;59.30
16134;DHT22;8172;45.018;5.972;2022-10-26T19:55:05;15.80;59.50
16134;DHT22;8172;45.018;5.972;2022-10-26T20:00:13;15.70;59.70
16134;DHT22;8172;45.018;5.972;2022-10-26T20:05:21;15.60;59.90
16134;DHT22;8172;45.018;5.972;2022-10-26T20:10:28;15.60;60.00
16134;DHT22;8172;45.018;5.972;2022-10-26T20:15:37;15.50;60.10
16134;DHT22;8172;45.018;5.972;2022-10-26T20:20:47;15.50;60.30
16134;DHT22;8172;45.018;5.972;2022-10-26T20:25:54;15.40;60.30
16134;DHT22;8172;45.018;5.972;2022-10-26T20:31:03;15.40;60.40
16134;DHT22;8172;45.018;5.972;2022-10-26T20:36:11;15.30;60.50
16134;DHT22;8172;45.018;5.972;2022-10-26T20:41:19;15.30;60.50
16134;DHT22;8172;45.018;5.972;2022-10-26T20:46:27;15.30;60.60
16134;DHT22;8172;45.018;5.972;2022-10-26T20:51:41;15.30;60.60
16134;DHT22;8172;45.018;5.972;2022-10-26T20:56:49;15.20;60.70
16134;DHT22;8172;45.018;5.972;2022-10-26T21:01:57;15.20;60.70
16134;DHT22;8172;45.018;5.972;2022-10-26T21:07:05;15.20;60.70
16134;DHT22;8172;45.018;5.972;2022-10-26T21:12:14;15.20;60.80
16134;DHT22;8172;45.018;5.972;2022-10-26T21:17:23;15.10;61.00
16134;DHT22;8172;45.018;5.972;2022-10-26T21:22:30;15.10;61.10
16134;DHT22;8172;45.018;5.972;2022-10-26T21:27:38;15.10;61.30
16134;DHT22;8172;45.018;5.972;2022-10-26T21:32:46;15.10;61.30
16134;DHT22;8172;45.018;5.972;2022-10-26T21:37:54;15.00;61.30
16134;DHT22;8172;45.018;5.972;2022-10-26T21:43:01;15.00;61.30
16134;DHT22;8172;45.018;5.972;2022-10-26T21:48:08;15.00;61.10
16134;DHT22;8172;45.018;5.972;2022-10-26T21:53:16;14.90;61.10
16134;DHT22;8172;45.018;5.972;2022-10-26T21:58:23;14.90;61.30
16134;DHT22;8172;45.018;5.972;2022-10-26T22:03:31;14.90;61.40
16134;DHT22;8172;45.018;5.972;2022-10-26T22:08:38;14.90;61.40
16134;DHT22;8172;45.018;5.972;2022-10-26T22:13:47;14.90;61.30
16134;DHT22;8172;45.018;5.972;2022-10-26T22:18:57;14.90;61.10
16134;DHT22;8172;45.018;5.972;2022-10-26T22:24:05;14.80;61.20
16134;DHT22;8172;45.018;5.972;2022-10-26T22:29:12;14.80;61.10
16134;DHT22;8172;45.018;5.972;2022-10-26T22:34:19;14.80;61.00
16134;DHT22;8172;45.018;5.972;2022-10-26T22:39:27;14.80;61.10
16134;DHT22;8172;45.018;5.972;2022-10-26T22:44:36;14.80;61.10
16134;DHT22;8172;45.018;5.972;2022-10-26T22:49:43;14.80;61.10
16134;DHT22;8172;45.018;5.972;2022-10-26T22:54:50;14.80;61.10
16134;DHT22;8172;45.018;5.972;2022-10-26T22:59:57;14.70;60.90
16134;DHT22;8172;45.018;5.972;2022-10-26T23:05:05;14.70;60.90
16134;DHT22;8172;45.018;5.972;2022-10-26T23:10:13;14.70;60.80
16134;DHT22;8172;45.018;5.972;2022-10-26T23:15:20;14.70;60.90
16134;DHT22;8172;45.018;5.972;2022-10-26T23:20:27;14.70;60.80
16134;DHT22;8172;45.018;5.972;2022-10-26T23:25:36;14.70;60.70
16134;DHT22;8172;45.018;5.972;2022-10-26T23:30:44;14.70;60.60
16134;DHT22;8172;45.018;5.972;2022-10-26T23:35:52;14.70;60.60
16134;DHT22;8172;45.018;5.972;2022-10-26T23:40:59;14.60;60.60
16134;DHT22;8172;45.018;5.972;2022-10-26T23:46:07;14.70;60.60
16134;DHT22;8172;45.018;5.972;2022-10-26T23:51:14;14.60;60.70
16134;DHT22;8172;45.018;5.972;2022-10-26T23:56:22;14.60;60.70
